Time;durP1;ratioP1;P1;durP2;ratioP2;P2;SDS_P1;SDS_P2;PMS_P1;PMS_P2;Temp;Humidity;BMP_temperature;BMP_pressure;BME280_temperature;BME280_humidity;BME280_pressure;Samples;Min_cycle;Max_cycle;Signal;HPM_P1;HPM_P2
2023/06/19 00:00:30;;;;;;;;;;;17.50;99.90;;;;;;4929279;29;20276;-61
2023/06/19 00:02:57;;;;;;;;;;;17.50;99.90;;;;;;4935235;29;19926;-58
2023/06/19 00:05:24;;;;;;;;;;;17.50;99.90;;;;;;4937491;29;19930;-61
2023/06/19 00:07:51;;;;;;;;;;;17.50;99.90;;;;;;4935705;29;20270;-61
2023/06/19 00:10:18;;;;;;;;;;;17.40;99.90;;;;;;4936976;29;19930;-61
2023/06/19 00:12:45;;;;;;;;;;;17.50;99.90;;;;;;4936096;29;20544;-60
2023/06/19 00:15:12;;;;;;;;;;;17.40;99.90;;;;;;4937100;29;20371;-60
2023/06/19 00:17:39;;;;;;;;;;;17.30;99.90;;;;;;4932737;29;19930;-60
2023/06/19 00:20:06;;;;;;;;;;;17.30;99.90;;;;;;4936418;29;20000;-59
2023/06/19 00:22:33;;;;;;;;;;;17.20;99.90;;;;;;4936640;29;19923;-61
2023/06/19 00:24:59;;;;;;;;;;;17.20;99.90;;;;;;4934528;29;20406;-61
2023/06/19 00:27:26;;;;;;;;;;;17.10;99.90;;;;;;4935242;29;19923;-60
2023/06/19 00:29:53;;;;;;;;;;;17.00;99.90;;;;;;4933923;29;19954;-61
2023/06/19 00:32:20;;;;;;;;;;;16.90;99.90;;;;;;4936052;29;19930;-61
2023/06/19 00:34:47;;;;;;;;;;;16.90;99.90;;;;;;4935669;29;20607;-61
2023/06/19 00:37:13;;;;;;;;;;;16.80;99.90;;;;;;4932653;29;20298;-60
2023/06/19 00:39:40;;;;;;;;;;;16.80;99.90;;;;;;4936777;29;20009;-60
2023/06/19 00:42:10;;;;;;;;;;;16.70;99.90;;;;;;4935161;29;19926;-59
2023/06/19 00:44:37;;;;;;;;;;;16.70;99.90;;;;;;4925387;29;19983;-61
2023/06/19 00:47:04;;;;;;;;;;;16.60;99.90;;;;;;4917846;29;19974;-59
2023/06/19 00:49:31;;;;;;;;;;;16.50;99.90;;;;;;4917331;29;20018;-60
2023/06/19 00:51:58;;;;;;;;;;;16.40;99.90;;;;;;4934791;29;19923;-60
2023/06/19 00:54:25;;;;;;;;;;;16.40;99.90;;;;;;4917836;29;20414;-61
2023/06/19 00:56:53;;;;;;;;;;;16.30;99.90;;;;;;4936104;29;19955;-61
2023/06/19 00:59:20;;;;;;;;;;;16.30;99.90;;;;;;4935738;29;19927;-59
2023/06/19 01:01:47;;;;;;;;;;;16.20;99.90;;;;;;4918879;29;20442;-61
2023/06/19 01:04:14;;;;;;;;;;;16.20;99.90;;;;;;4917349;29;20430;-61
2023/06/19 01:06:52;;;;;;;;;;;16.10;99.90;;;;;;4919312;29;19989;-58
2023/06/19 01:09:20;;;;;;;;;;;16.20;99.90;;;;;;4917324;29;19931;-60
2023/06/19 01:11:48;;;;;;;;;;;16.10;99.90;;;;;;4918279;29;19953;-60
2023/06/19 01:14:21;;;;;;;;;;;16.20;99.90;;;;;;4927681;29;19923;-61
2023/06/19 01:16:47;;;;;;;;;;;16.10;99.90;;;;;;4917160;29;19923;-61
2023/06/19 01:19:21;;;;;;;;;;;16.10;99.90;;;;;;4935631;29;19929;-59
2023/06/19 01:21:49;;;;;;;;;;;16.10;99.90;;;;;;4918571;29;20355;-57
2023/06/19 01:24:16;;;;;;;;;;;16.10;99.90;;;;;;4934453;29;20318;-61
2023/06/19 01:26:45;;;;;;;;;;;16.10;99.90;;;;;;4917651;29;19930;-60
2023/06/19 01:29:14;;;;;;;;;;;16.00;99.90;;;;;;4918001;29;19955;-59
2023/06/19 01:31:45;;;;;;;;;;;16.00;99.90;;;;;;4929611;29;19922;-60
2023/06/19 01:34:13;;;;;;;;;;;16.10;99.90;;;;;;4918172;29;20009;-60
2023/06/19 01:36:40;;;;;;;;;;;16.10;99.90;;;;;;4918605;29;20383;-59
2023/06/19 01:39:07;;;;;;;;;;;16.10;99.90;;;;;;4935250;29;19923;-59
2023/06/19 01:41:34;;;;;;;;;;;16.10;99.90;;;;;;4917020;29;19930;-61
2023/06/19 01:44:01;;;;;;;;;;;16.10;99.90;;;;;;4931462;29;19929;-61
2023/06/19 01:46:27;;;;;;;;;;;16.10;99.90;;;;;;4935649;29;19922;-60
2023/06/19 01:48:54;;;;;;;;;;;16.10;99.90;;;;;;4917378;29;19929;-61
2023/06/19 01:51:21;;;;;;;;;;;16.10;99.90;;;;;;4915227;29;19931;-59
2023/06/19 01:53:48;;;;;;;;;;;16.20;99.90;;;;;;4933888;29;20318;-61
2023/06/19 01:59:49;;;;;;;;;;;16.30;99.90;;;;;;4936725;29;19925;-60
2023/06/19 02:02:45;;;;;;;;;;;16.30;99.90;;;;;;4939562;29;20033;-62
2023/06/19 02:05:39;;;;;;;;;;;16.30;99.90;;;;;;4933676;29;19940;-61
2023/06/19 02:08:06;;;;;;;;;;;16.20;99.90;;;;;;4924058;29;20130;-61
2023/06/19 02:10:35;;;;;;;;;;;16.10;99.90;;;;;;4951902;29;19927;-60
2023/06/19 02:13:02;;;;;;;;;;;16.10;99.90;;;;;;4949413;28;19923;-60
2023/06/19 02:15:29;;;;;;;;;;;16.10;99.90;;;;;;4946442;29;19922;-62
2023/06/19 02:17:56;;;;;;;;;;;16.10;99.90;;;;;;4949809;29;19973;-61
2023/06/19 02:20:25;;;;;;;;;;;16.10;99.90;;;;;;4952790;29;20026;-61
2023/06/19 02:22:55;;;;;;;;;;;16.10;99.90;;;;;;4953353;29;19923;-60
2023/06/19 02:25:22;;;;;;;;;;;16.10;99.90;;;;;;4952332;29;19926;-61
2023/06/19 02:27:49;;;;;;;;;;;16.20;99.90;;;;;;4951815;29;19929;-60
2023/06/19 02:30:15;;;;;;;;;;;16.20;99.90;;;;;;4943735;28;19922;-61
2023/06/19 02:32:42;;;;;;;;;;;16.10;99.90;;;;;;4951473;29;20408;-60
2023/06/19 02:35:09;;;;;;;;;;;16.00;99.90;;;;;;4951493;28;19927;-61
2023/06/19 02:37:36;;;;;;;;;;;16.00;99.90;;;;;;4951896;29;20299;-60
2023/06/19 02:40:04;;;;;;;;;;;15.90;99.90;;;;;;4952348;29;20530;-61
2023/06/19 02:42:32;;;;;;;;;;;15.90;99.90;;;;;;4952827;28;19922;-61
2023/06/19 02:45:03;;;;;;;;;;;15.80;99.90;;;;;;4950796;29;19977;-61
2023/06/19 02:47:31;;;;;;;;;;;15.80;99.90;;;;;;4947470;29;19922;-61
2023/06/19 02:49:58;;;;;;;;;;;15.80;99.90;;;;;;4934400;29;19965;-61
2023/06/19 02:52:26;;;;;;;;;;;15.70;99.90;;;;;;4936241;29;19969;-62
2023/06/19 02:54:52;;;;;;;;;;;15.70;99.90;;;;;;4948413;28;20018;-60
2023/06/19 02:57:19;;;;;;;;;;;15.70;99.90;;;;;;4952238;29;19928;-61
2023/06/19 02:59:46;;;;;;;;;;;15.70;99.90;;;;;;4950642;29;19938;-59
2023/06/19 03:02:14;;;;;;;;;;;15.70;99.90;;;;;;4951684;29;19926;-60
2023/06/19 03:04:42;;;;;;;;;;;15.70;99.90;;;;;;4944583;29;19973;-61
2023/06/19 03:07:09;;;;;;;;;;;15.80;99.90;;;;;;4951908;29;19938;-61
2023/06/19 03:09:37;;;;;;;;;;;15.80;99.90;;;;;;4950857;28;20267;-61
2023/06/19 03:12:04;;;;;;;;;;;15.80;99.90;;;;;;4951183;28;20042;-61
2023/06/19 03:14:30;;;;;;;;;;;15.80;99.90;;;;;;4953266;28;19923;-61
2023/06/19 03:16:57;;;;;;;;;;;15.80;99.90;;;;;;4938976;29;20457;-61
2023/06/19 03:19:25;;;;;;;;;;;15.80;99.90;;;;;;4952885;29;20385;-61
2023/06/19 03:21:51;;;;;;;;;;;15.80;99.90;;;;;;4939100;29;19929;-62
2023/06/19 03:24:18;;;;;;;;;;;15.80;99.90;;;;;;4954650;28;19973;-61
2023/06/19 03:26:46;;;;;;;;;;;15.80;99.90;;;;;;4954729;29;19922;-60
2023/06/19 03:29:13;;;;;;;;;;;15.90;99.90;;;;;;4937745;29;19936;-62
2023/06/19 03:32:03;;;;;;;;;;;15.90;99.90;;;;;;4955949;28;20425;-61
2023/06/19 03:34:33;;;;;;;;;;;15.90;99.90;;;;;;4951636;29;19929;-60
2023/06/19 03:37:04;;;;;;;;;;;15.90;99.90;;;;;;4940448;29;20331;-61
2023/06/19 03:39:31;;;;;;;;;;;15.80;99.90;;;;;;4948599;29;19922;-60
2023/06/19 03:42:04;;;;;;;;;;;15.80;99.90;;;;;;4937080;29;19922;-61
2023/06/19 03:44:31;;;;;;;;;;;15.80;99.90;;;;;;4953648;28;20364;-60
2023/06/19 03:46:58;;;;;;;;;;;15.80;99.90;;;;;;4953112;28;19922;-61
2023/06/19 03:49:25;;;;;;;;;;;15.80;99.90;;;;;;4954710;28;19922;-61
2023/06/19 03:51:54;;;;;;;;;;;15.80;99.90;;;;;;4954562;29;19927;-61
2023/06/19 03:54:21;;;;;;;;;;;15.80;99.90;;;;;;4955052;29;20642;-60
2023/06/19 03:56:48;;;;;;;;;;;15.80;99.90;;;;;;4954535;29;20290;-61
2023/06/19 03:59:16;;;;;;;;;;;15.80;99.90;;;;;;4954671;28;19926;-61
2023/06/19 04:01:43;;;;;;;;;;;15.90;99.90;;;;;;4953825;29;19922;-61
2023/06/19 04:04:09;;;;;;;;;;;15.90;99.90;;;;;;4952698;28;19927;-60
2023/06/19 04:06:36;;;;;;;;;;;15.90;99.90;;;;;;4955401;29;19929;-61
2023/06/19 04:09:03;;;;;;;;;;;16.00;99.90;;;;;;4954464;29;19929;-60
2023/06/19 04:11:29;;;;;;;;;;;16.00;99.90;;;;;;4953734;28;19922;-62
2023/06/19 04:13:56;;;;;;;;;;;16.00;99.90;;;;;;4938605;29;20017;-61
2023/06/19 04:16:23;;;;;;;;;;;16.00;99.90;;;;;;4952154;28;20361;-60
2023/06/19 04:18:50;;;;;;;;;;;16.10;99.90;;;;;;4953865;29;20338;-60
2023/06/19 04:21:16;;;;;;;;;;;16.10;99.90;;;;;;4943790;28;20287;-61
2023/06/19 04:23:43;;;;;;;;;;;16.20;99.90;;;;;;4955782;28;20291;-61
2023/06/19 04:26:10;;;;;;;;;;;16.20;99.90;;;;;;4953223;28;19926;-61
2023/06/19 04:28:39;;;;;;;;;;;16.20;99.90;;;;;;4933655;29;19926;-61
2023/06/19 04:31:06;;;;;;;;;;;16.20;99.90;;;;;;4952100;28;19930;-61
2023/06/19 04:33:32;;;;;;;;;;;16.30;99.90;;;;;;4955718;29;20336;-61
2023/06/19 04:36:00;;;;;;;;;;;16.30;99.90;;;;;;4954620;29;19926;-61
2023/06/19 04:38:27;;;;;;;;;;;16.30;99.90;;;;;;4954512;28;19922;-61
2023/06/19 04:40:53;;;;;;;;;;;16.40;99.90;;;;;;4953734;28;19922;-61
2023/06/19 04:43:20;;;;;;;;;;;16.40;99.90;;;;;;4955297;29;19929;-61
2023/06/19 04:45:47;;;;;;;;;;;16.40;99.90;;;;;;4952566;28;19929;-60
2023/06/19 04:48:13;;;;;;;;;;;16.50;99.90;;;;;;4954416;28;20009;-62
2023/06/19 04:50:40;;;;;;;;;;;16.50;99.90;;;;;;4952531;28;19922;-62
2023/06/19 04:53:07;;;;;;;;;;;16.50;99.90;;;;;;4954401;29;20315;-60
2023/06/19 04:55:34;;;;;;;;;;;16.60;99.90;;;;;;4947799;29;19929;-62
2023/06/19 04:58:00;;;;;;;;;;;16.60;99.90;;;;;;4955067;29;19926;-62
2023/06/19 05:00:28;;;;;;;;;;;16.70;99.90;;;;;;4952473;29;19922;-62
2023/06/19 05:02:59;;;;;;;;;;;16.80;99.90;;;;;;4955147;29;19950;-61
2023/06/19 05:05:27;;;;;;;;;;;16.90;99.90;;;;;;4954210;29;20387;-62
2023/06/19 05:07:53;;;;;;;;;;;17.00;99.90;;;;;;4955332;29;20287;-61
2023/06/19 05:10:20;;;;;;;;;;;17.00;99.90;;;;;;4952167;29;20290;-61
2023/06/19 05:12:47;;;;;;;;;;;17.00;99.90;;;;;;4954191;29;20414;-62
2023/06/19 05:15:14;;;;;;;;;;;17.20;99.90;;;;;;4953659;28;19922;-62
2023/06/19 05:17:41;;;;;;;;;;;17.20;99.90;;;;;;4954592;29;19926;-62
2023/06/19 05:20:11;;;;;;;;;;;17.20;99.90;;;;;;4948606;29;19980;-61
2023/06/19 05:22:38;;;;;;;;;;;17.30;99.90;;;;;;4953517;29;19968;-62
2023/06/19 05:25:05;;;;;;;;;;;17.40;99.90;;;;;;4953333;28;20282;-62
2023/06/19 05:27:32;;;;;;;;;;;17.40;99.90;;;;;;4949474;28;19929;-62
2023/06/19 05:29:58;;;;;;;;;;;17.50;99.90;;;;;;4953111;28;19931;-62
2023/06/19 05:32:25;;;;;;;;;;;17.60;99.90;;;;;;4955032;29;20020;-61
2023/06/19 05:34:52;;;;;;;;;;;17.50;99.90;;;;;;4954530;28;19922;-62
2023/06/19 05:37:18;;;;;;;;;;;17.60;99.90;;;;;;4954740;28;19926;-62
2023/06/19 05:39:45;;;;;;;;;;;17.60;99.90;;;;;;4953530;29;19961;-62
2023/06/19 05:42:12;;;;;;;;;;;17.70;99.90;;;;;;4954360;29;19930;-62
2023/06/19 05:44:40;;;;;;;;;;;17.80;99.90;;;;;;4954880;29;19926;-61
2023/06/19 05:47:06;;;;;;;;;;;17.90;99.90;;;;;;4952374;28;19949;-62
2023/06/19 05:49:33;;;;;;;;;;;18.00;99.90;;;;;;4954167;28;19930;-61
2023/06/19 05:52:00;;;;;;;;;;;18.10;99.90;;;;;;4952896;29;20018;-61
2023/06/19 05:54:26;;;;;;;;;;;18.20;99.90;;;;;;4953556;29;20013;-62
2023/06/19 05:56:53;;;;;;;;;;;18.30;99.90;;;;;;4952194;29;19966;-62
2023/06/19 05:59:20;;;;;;;;;;;18.20;99.90;;;;;;4954131;29;20029;-61
2023/06/19 06:01:46;;;;;;;;;;;18.30;99.90;;;;;;4954146;29;19988;-62
2023/06/19 06:04:13;;;;;;;;;;;18.40;99.90;;;;;;4954180;28;19922;-62
2023/06/19 06:06:40;;;;;;;;;;;18.60;99.90;;;;;;4952468;29;20009;-61
2023/06/19 06:09:10;;;;;;;;;;;18.70;99.90;;;;;;4953647;29;20375;-62
2023/06/19 06:11:37;;;;;;;;;;;18.80;99.90;;;;;;4953999;29;20009;-61
2023/06/19 06:14:04;;;;;;;;;;;18.90;99.90;;;;;;4953353;29;19926;-62
2023/06/19 06:16:31;;;;;;;;;;;18.90;99.90;;;;;;4953585;29;20399;-60
2023/06/19 06:18:58;;;;;;;;;;;19.00;99.90;;;;;;4953149;29;19922;-62
2023/06/19 06:21:25;;;;;;;;;;;19.10;99.90;;;;;;4953818;29;20016;-60
2023/06/19 06:23:53;;;;;;;;;;;19.10;99.90;;;;;;4952882;29;19926;-61
2023/06/19 06:26:19;;;;;;;;;;;19.20;99.90;;;;;;4952570;29;19926;-61
2023/06/19 06:28:46;;;;;;;;;;;19.20;99.90;;;;;;4953603;28;19929;-62
2023/06/19 06:31:13;;;;;;;;;;;19.30;99.90;;;;;;4952858;29;19933;-62
2023/06/19 06:33:40;;;;;;;;;;;19.50;99.90;;;;;;4953773;29;19933;-62
2023/06/19 06:36:06;;;;;;;;;;;19.70;99.90;;;;;;4951347;28;19929;-62
2023/06/19 06:38:34;;;;;;;;;;;19.90;99.90;;;;;;4953524;29;19929;-62
2023/06/19 06:41:01;;;;;;;;;;;20.20;99.90;;;;;;4953009;29;19922;-62
2023/06/19 06:43:28;;;;;;;;;;;20.40;99.90;;;;;;4952705;29;20300;-62
2023/06/19 06:45:54;;;;;;;;;;;20.50;99.90;;;;;;4953601;29;20395;-61
2023/06/19 06:48:21;;;;;;;;;;;20.60;99.90;;;;;;4951546;28;19929;-62
2023/06/19 06:50:48;;;;;;;;;;;20.50;99.90;;;;;;4953114;29;19930;-61
2023/06/19 06:53:14;;;;;;;;;;;20.40;99.90;;;;;;4953138;29;19923;-62
2023/06/19 06:55:41;;;;;;;;;;;20.40;99.90;;;;;;4952365;29;19930;-62
2023/06/19 06:58:07;;;;;;;;;;;20.30;99.90;;;;;;4953234;29;19926;-62
2023/06/19 07:00:34;;;;;;;;;;;20.10;99.90;;;;;;4952782;29;19926;-62
2023/06/19 07:03:01;;;;;;;;;;;20.20;99.90;;;;;;4953258;29;19926;-61
2023/06/19 07:05:29;;;;;;;;;;;20.30;99.90;;;;;;4951673;29;19923;-62
2023/06/19 07:07:56;;;;;;;;;;;20.40;99.90;;;;;;4953146;28;19961;-61
2023/06/19 07:10:23;;;;;;;;;;;20.40;99.90;;;;;;4951168;29;19926;-61
2023/06/19 07:12:51;;;;;;;;;;;20.40;99.90;;;;;;4953482;29;20330;-62
2023/06/19 07:15:18;;;;;;;;;;;20.40;99.90;;;;;;4952553;29;20473;-62
2023/06/19 07:17:45;;;;;;;;;;;20.30;99.90;;;;;;4953007;29;19922;-62
2023/06/19 07:20:12;;;;;;;;;;;20.50;99.90;;;;;;4948953;28;20013;-62
2023/06/19 07:22:39;;;;;;;;;;;20.70;99.90;;;;;;4953144;29;19936;-62
2023/06/19 07:25:06;;;;;;;;;;;21.00;99.90;;;;;;4952273;29;20466;-62
2023/06/19 07:27:33;;;;;;;;;;;21.00;99.90;;;;;;4953197;29;19945;-62
2023/06/19 07:30:00;;;;;;;;;;;21.30;99.90;;;;;;4951118;29;19930;-62
2023/06/19 07:32:26;;;;;;;;;;;21.60;99.90;;;;;;4952853;29;19923;-61
2023/06/19 07:34:53;;;;;;;;;;;21.80;99.90;;;;;;4952526;29;20335;-63
2023/06/19 07:37:20;;;;;;;;;;;21.80;99.90;;;;;;4952097;29;19930;-62
2023/06/19 07:39:48;;;;;;;;;;;21.90;99.90;;;;;;4951567;29;20399;-62
2023/06/19 07:42:15;;;;;;;;;;;22.10;99.90;;;;;;4952418;29;20393;-63
2023/06/19 07:44:42;;;;;;;;;;;22.20;99.90;;;;;;4951230;28;19973;-62
2023/06/19 07:47:09;;;;;;;;;;;22.20;99.90;;;;;;4945123;29;19945;-61
2023/06/19 07:49:36;;;;;;;;;;;22.00;99.90;;;;;;4952745;29;19922;-63
2023/06/19 07:52:04;;;;;;;;;;;22.00;99.90;;;;;;4951163;29;19929;-62
2023/06/19 07:57:13;;;;;;;;;;;22.10;99.90;;;;;;4933041;29;19930;-60
2023/06/19 07:59:48;;;;;;;;;;;22.10;99.90;;;;;;4934863;29;19933;-62
2023/06/19 08:02:15;;;;;;;;;;;22.30;99.90;;;;;;4948333;29;19942;-62
2023/06/19 08:12:22;;;;;;;;;;;23.30;99.90;;;;;;4950209;28;19914;-61
2023/06/19 08:14:48;;;;;;;;;;;23.40;99.90;;;;;;4956357;29;19929;-62
2023/06/19 08:17:15;;;;;;;;;;;23.60;99.90;;;;;;4955859;28;19930;-62
2023/06/19 08:19:42;;;;;;;;;;;23.60;99.90;;;;;;4954104;28;19922;-61
2023/06/19 08:22:09;;;;;;;;;;;23.50;99.90;;;;;;4949963;28;19929;-62
2023/06/19 08:24:36;;;;;;;;;;;23.50;99.90;;;;;;4956015;29;19922;-59
2023/06/19 08:27:03;;;;;;;;;;;23.50;99.90;;;;;;4955664;29;20026;-62
2023/06/19 08:29:30;;;;;;;;;;;23.60;99.90;;;;;;4952625;29;19923;-61
2023/06/19 08:31:56;;;;;;;;;;;23.70;99.90;;;;;;4955479;28;20025;-61
2023/06/19 08:34:23;;;;;;;;;;;23.70;99.90;;;;;;4955124;29;19922;-60
2023/06/19 08:36:50;;;;;;;;;;;23.70;99.90;;;;;;4956010;29;20299;-61
2023/06/19 08:39:17;;;;;;;;;;;23.80;99.90;;;;;;4955872;28;19922;-61
2023/06/19 08:41:43;;;;;;;;;;;23.90;99.90;;;;;;4954147;28;19923;-61
2023/06/19 08:44:10;;;;;;;;;;;24.20;99.90;;;;;;4955597;29;19926;-62
2023/06/19 08:46:37;;;;;;;;;;;24.30;99.90;;;;;;4955612;29;19923;-61
2023/06/19 08:49:06;;;;;;;;;;;24.50;99.90;;;;;;4950499;28;19938;-60
2023/06/19 08:51:32;;;;;;;;;;;24.60;99.90;;;;;;4955363;28;19922;-62
2023/06/19 08:54:04;;;;;;;;;;;24.90;99.90;;;;;;4970039;28;19945;-61
2023/06/19 08:56:34;;;;;;;;;;;25.20;99.90;;;;;;4949759;28;19934;-61
2023/06/19 08:59:09;;;;;;;;;;;25.20;99.90;;;;;;4955420;29;19933;-62
2023/06/19 09:01:36;;;;;;;;;;;25.00;99.90;;;;;;4954238;28;19922;-61
2023/06/19 09:04:10;;;;;;;;;;;25.10;99.90;;;;;;4935284;29;19929;-62
2023/06/19 09:06:47;;;;;;;;;;;25.50;99.90;;;;;;4955009;29;19972;-62
2023/06/19 09:09:15;;;;;;;;;;;25.60;99.90;;;;;;4954967;29;20335;-61
2023/06/19 09:11:43;;;;;;;;;;;25.50;99.90;;;;;;4946724;28;19933;-61
2023/06/19 09:14:10;;;;;;;;;;;25.30;99.90;;;;;;4955352;29;19933;-62
2023/06/19 09:16:38;;;;;;;;;;;25.30;99.90;;;;;;4954144;29;19929;-61
2023/06/19 09:19:05;;;;;;;;;;;25.40;99.90;;;;;;4938183;29;19929;-61
2023/06/19 09:21:34;;;;;;;;;;;25.60;99.90;;;;;;4949197;28;19930;-62
2023/06/19 09:24:05;;;;;;;;;;;25.80;99.90;;;;;;4954726;29;19930;-61
2023/06/19 09:26:34;;;;;;;;;;;26.00;99.90;;;;;;4937759;29;19922;-62
2023/06/19 09:29:13;;;;;;;;;;;26.20;99.90;;;;;;4953477;28;19926;-62
2023/06/19 09:31:43;;;;;;;;;;;26.50;99.90;;;;;;4954508;28;19969;-61
2023/06/19 09:34:10;;;;;;;;;;;26.90;99.90;;;;;;4954507;29;19926;-62
2023/06/19 09:36:37;;;;;;;;;;;27.20;99.70;;;;;;4937841;29;19973;-61
2023/06/19 09:39:04;;;;;;;;;;;27.20;99.90;;;;;;4947178;29;19926;-60
2023/06/19 09:41:32;;;;;;;;;;;27.00;99.80;;;;;;4954425;28;19926;-62
2023/06/19 09:43:59;;;;;;;;;;;26.60;99.90;;;;;;4954264;29;19926;-61
2023/06/19 09:46:29;;;;;;;;;;;26.60;99.70;;;;;;4958227;28;19922;-62
2023/06/19 09:48:58;;;;;;;;;;;26.70;98.80;;;;;;4973497;28;19922;-62
2023/06/19 09:51:33;;;;;;;;;;;27.00;99.00;;;;;;4953710;28;20395;-63
2023/06/19 09:54:02;;;;;;;;;;;27.20;98.90;;;;;;4954486;28;19922;-62
2023/06/19 09:56:28;;;;;;;;;;;27.50;98.20;;;;;;4948771;28;20330;-62
2023/06/19 09:58:58;;;;;;;;;;;27.50;97.30;;;;;;4954217;29;20386;-62
2023/06/19 10:01:26;;;;;;;;;;;27.60;96.30;;;;;;4953268;28;19929;-62
2023/06/19 10:04:01;;;;;;;;;;;27.80;97.00;;;;;;4953860;29;19927;-63
2023/06/19 10:06:29;;;;;;;;;;;28.00;98.10;;;;;;4953983;29;19929;-62
2023/06/19 10:09:06;;;;;;;;;;;27.70;95.20;;;;;;4954134;28;19923;-62
2023/06/19 10:11:50;;;;;;;;;;;27.80;98.00;;;;;;4949031;28;19922;-61
2023/06/19 10:14:21;;;;;;;;;;;27.70;98.00;;;;;;4953974;29;19961;-63
2023/06/19 10:16:48;;;;;;;;;;;27.60;96.80;;;;;;4937054;29;19922;-62
2023/06/19 10:19:16;;;;;;;;;;;27.40;97.50;;;;;;4948899;28;19923;-61
2023/06/19 10:21:49;;;;;;;;;;;27.50;97.20;;;;;;4953268;28;19941;-62
2023/06/19 10:24:19;;;;;;;;;;;27.60;96.20;;;;;;4935829;29;20173;-61
2023/06/19 10:26:57;;;;;;;;;;;27.70;96.70;;;;;;4950056;28;20294;-63
2023/06/19 10:29:25;;;;;;;;;;;27.90;96.20;;;;;;4945925;29;19922;-62
2023/06/19 10:31:52;;;;;;;;;;;28.10;95.90;;;;;;4952955;28;19930;-62
2023/06/19 10:34:19;;;;;;;;;;;28.10;95.50;;;;;;4952768;28;20504;-62
2023/06/19 10:36:46;;;;;;;;;;;28.20;95.60;;;;;;4953924;29;19933;-61
2023/06/19 10:39:13;;;;;;;;;;;28.30;94.30;;;;;;4950871;28;20377;-61
2023/06/19 10:41:40;;;;;;;;;;;28.40;94.70;;;;;;4953530;28;20406;-61
2023/06/19 10:44:12;;;;;;;;;;;28.40;94.20;;;;;;4952779;29;19930;-62
2023/06/19 10:46:40;;;;;;;;;;;28.60;94.10;;;;;;4953773;28;20318;-63
2023/06/19 10:49:07;;;;;;;;;;;28.70;93.10;;;;;;4953310;28;19923;-62
2023/06/19 10:51:34;;;;;;;;;;;28.70;94.00;;;;;;4953270;28;19923;-62
2023/06/19 10:54:01;;;;;;;;;;;28.90;93.30;;;;;;4953434;29;20192;-62
2023/06/19 10:56:27;;;;;;;;;;;28.90;94.50;;;;;;4952657;28;20358;-63
2023/06/19 10:59:01;;;;;;;;;;;28.80;94.00;;;;;;4953808;28;19922;-62
2023/06/19 11:01:34;;;;;;;;;;;28.80;95.60;;;;;;4951867;28;20295;-62
2023/06/19 11:04:02;;;;;;;;;;;28.90;93.80;;;;;;4953566;29;19923;-62
2023/06/19 11:06:29;;;;;;;;;;;29.00;93.90;;;;;;4949748;28;19953;-63
2023/06/19 11:08:56;;;;;;;;;;;29.00;94.50;;;;;;4953545;29;19970;-63
2023/06/19 11:11:22;;;;;;;;;;;29.10;93.90;;;;;;4952114;28;20375;-63
2023/06/19 11:13:49;;;;;;;;;;;29.10;93.30;;;;;;4953508;29;19922;-60
2023/06/19 11:16:16;;;;;;;;;;;29.10;93.60;;;;;;4952253;29;19928;-62
2023/06/19 11:18:42;;;;;;;;;;;29.10;93.80;;;;;;4953623;29;19927;-61
2023/06/19 11:21:09;;;;;;;;;;;29.10;93.80;;;;;;4950143;28;19930;-63
2023/06/19 11:23:36;;;;;;;;;;;29.20;92.20;;;;;;4953403;29;19929;-62
2023/06/19 11:26:03;;;;;;;;;;;29.20;92.40;;;;;;4952868;29;19934;-62
2023/06/19 11:28:30;;;;;;;;;;;29.50;93.10;;;;;;4952851;28;19923;-62
2023/06/19 11:30:58;;;;;;;;;;;29.60;93.60;;;;;;4952856;28;19922;-60
2023/06/19 11:33:24;;;;;;;;;;;29.50;92.80;;;;;;4950434;28;20009;-63
2023/06/19 11:35:52;;;;;;;;;;;29.60;91.70;;;;;;4956506;29;19922;-63
2023/06/19 11:38:24;;;;;;;;;;;29.70;91.50;;;;;;4955622;29;19957;-62
2023/06/19 11:40:51;;;;;;;;;;;29.90;91.00;;;;;;4937570;28;19928;-62
2023/06/19 11:43:24;;;;;;;;;;;29.90;91.50;;;;;;4975688;28;19933;-62
2023/06/19 11:45:52;;;;;;;;;;;29.80;91.00;;;;;;4941706;28;20017;-62
2023/06/19 11:48:23;;;;;;;;;;;29.90;90.70;;;;;;4946673;28;19929;-61
2023/06/19 11:50:51;;;;;;;;;;;30.00;88.90;;;;;;4952223;28;19929;-62
2023/06/19 11:53:18;;;;;;;;;;;30.00;89.50;;;;;;4956445;29;20005;-62
2023/06/19 11:55:45;;;;;;;;;;;30.30;86.90;;;;;;4957450;28;20496;-62
2023/06/19 11:58:11;;;;;;;;;;;30.40;89.50;;;;;;4956630;29;19937;-62
2023/06/19 12:00:38;;;;;;;;;;;30.30;91.40;;;;;;4956474;28;19922;-63
2023/06/19 12:03:05;;;;;;;;;;;30.10;92.10;;;;;;4956295;28;19930;-63
2023/06/19 12:05:32;;;;;;;;;;;30.10;92.50;;;;;;4955862;28;19996;-61
2023/06/19 12:08:02;;;;;;;;;;;29.90;91.10;;;;;;4956518;29;19922;-62
2023/06/19 12:10:28;;;;;;;;;;;30.00;90.50;;;;;;4955609;28;19938;-62
2023/06/19 12:12:55;;;;;;;;;;;30.20;88.60;;;;;;4956481;28;19930;-61
2023/06/19 12:15:22;;;;;;;;;;;30.30;89.20;;;;;;4944337;28;20409;-62
2023/06/19 12:17:50;;;;;;;;;;;30.30;90.40;;;;;;4975677;28;20378;-63
2023/06/19 12:20:17;;;;;;;;;;;30.00;90.60;;;;;;4948664;28;20025;-62
2023/06/19 12:22:44;;;;;;;;;;;29.90;91.20;;;;;;4956312;29;19922;-61
2023/06/19 12:25:11;;;;;;;;;;;29.90;89.70;;;;;;4938092;29;19931;-61
2023/06/19 12:27:37;;;;;;;;;;;29.80;91.00;;;;;;4956425;28;19930;-62
2023/06/19 12:30:05;;;;;;;;;;;29.80;91.40;;;;;;4955094;28;19922;-62
2023/06/19 12:32:31;;;;;;;;;;;29.70;92.00;;;;;;4955917;29;19929;-63
2023/06/19 12:34:58;;;;;;;;;;;29.80;91.10;;;;;;4955694;29;20429;-60
2023/06/19 12:37:25;;;;;;;;;;;29.90;90.20;;;;;;4935732;28;19929;-62
2023/06/19 12:39:51;;;;;;;;;;;29.90;90.00;;;;;;4967278;28;19922;-62
2023/06/19 12:42:18;;;;;;;;;;;30.00;91.50;;;;;;4963724;28;20017;-63
2023/06/19 12:44:45;;;;;;;;;;;30.00;90.60;;;;;;4955999;29;19922;-62
2023/06/19 12:47:12;;;;;;;;;;;29.80;91.50;;;;;;4954982;28;19922;-63
2023/06/19 12:49:38;;;;;;;;;;;29.70;91.50;;;;;;4955897;29;20390;-62
2023/06/19 12:52:05;;;;;;;;;;;29.80;91.20;;;;;;4954821;28;19929;-62
2023/06/19 12:54:32;;;;;;;;;;;29.90;90.90;;;;;;4955861;29;19922;-62
2023/06/19 12:56:59;;;;;;;;;;;30.00;91.60;;;;;;4954781;28;19923;-62
2023/06/19 12:59:26;;;;;;;;;;;29.90;90.80;;;;;;4955697;29;19923;-62
2023/06/19 13:01:52;;;;;;;;;;;29.90;91.50;;;;;;4954613;28;19946;-62
2023/06/19 13:04:19;;;;;;;;;;;30.00;91.80;;;;;;4953583;28;21733;-62
2023/06/19 13:06:46;;;;;;;;;;;30.10;91.00;;;;;;4950348;29;19926;-61
2023/06/19 13:09:13;;;;;;;;;;;30.00;91.80;;;;;;4955450;29;19930;-63
2023/06/19 13:11:39;;;;;;;;;;;30.10;91.10;;;;;;4954887;28;20383;-63
2023/06/19 13:14:06;;;;;;;;;;;30.30;91.10;;;;;;4954803;28;19930;-62
2023/06/19 13:16:33;;;;;;;;;;;30.40;90.90;;;;;;4955136;29;19933;-61
2023/06/19 13:19:13;;;;;;;;;;;30.40;91.00;;;;;;4954608;29;19969;-62
2023/06/19 13:21:40;;;;;;;;;;;30.30;90.30;;;;;;4953578;28;20358;-63
2023/06/19 13:24:07;;;;;;;;;;;30.10;90.70;;;;;;4954366;28;19945;-61
2023/06/19 13:26:34;;;;;;;;;;;29.90;89.90;;;;;;4954901;29;20421;-61
2023/06/19 13:29:01;;;;;;;;;;;29.90;90.10;;;;;;4954955;29;19922;-62
2023/06/19 13:31:28;;;;;;;;;;;29.80;90.20;;;;;;4950170;28;19941;-62
2023/06/19 13:33:55;;;;;;;;;;;29.90;90.40;;;;;;4950967;29;19926;-63
2023/06/19 13:36:23;;;;;;;;;;;30.10;90.30;;;;;;4954543;29;19936;-62
2023/06/19 13:38:50;;;;;;;;;;;30.10;90.10;;;;;;4953448;28;20321;-63
2023/06/19 13:41:17;;;;;;;;;;;30.10;89.30;;;;;;4953773;28;19929;-61
2023/06/19 13:43:45;;;;;;;;;;;30.10;90.20;;;;;;4950637;28;19926;-62
2023/06/19 13:46:12;;;;;;;;;;;30.00;90.00;;;;;;4954817;29;19930;-62
2023/06/19 13:48:39;;;;;;;;;;;29.80;90.20;;;;;;4953698;28;20393;-63
2023/06/19 13:51:05;;;;;;;;;;;29.80;90.70;;;;;;4949917;28;20276;-62
2023/06/19 13:53:33;;;;;;;;;;;30.10;91.30;;;;;;4950217;29;20276;-63
2023/06/19 13:59:59;;;;;;;;;;;30.40;90.10;;;;;;4967988;28;19941;-60
2023/06/19 14:02:26;;;;;;;;;;;30.40;90.70;;;;;;4969659;28;20330;-61
2023/06/19 14:04:53;;;;;;;;;;;30.40;90.30;;;;;;4970933;28;19929;-61
2023/06/19 14:07:23;;;;;;;;;;;30.40;90.60;;;;;;4971995;28;19925;-61
2023/06/19 14:09:49;;;;;;;;;;;30.40;89.80;;;;;;4973189;28;19922;-62
2023/06/19 14:12:16;;;;;;;;;;;30.40;90.70;;;;;;4971497;28;19933;-61
2023/06/19 14:14:43;;;;;;;;;;;30.30;90.00;;;;;;4967223;28;19922;-61
2023/06/19 14:17:09;;;;;;;;;;;30.30;90.70;;;;;;4973101;28;19932;-61
2023/06/19 14:19:36;;;;;;;;;;;30.30;90.90;;;;;;4972998;28;20394;-62
2023/06/19 14:22:03;;;;;;;;;;;30.40;90.10;;;;;;4971596;28;19926;-60
2023/06/19 14:24:30;;;;;;;;;;;30.40;90.50;;;;;;4970829;28;19928;-60
2023/06/19 14:26:57;;;;;;;;;;;30.50;89.70;;;;;;4962008;28;20017;-62
2023/06/19 14:29:24;;;;;;;;;;;30.40;89.40;;;;;;4970524;28;19948;-61
2023/06/19 14:31:51;;;;;;;;;;;30.50;90.30;;;;;;4969916;28;19932;-61
2023/06/19 14:34:21;;;;;;;;;;;30.50;90.10;;;;;;4971058;28;19922;-61
2023/06/19 14:36:47;;;;;;;;;;;30.40;89.30;;;;;;4972295;28;19941;-62